Elmwood Park, Illinois
Current Conditions -  °F | °C
As of 8:51 PM on Sunday 23 Nov 2014 (Local Time) from KORD Reporting Station
Moderate Rain Moderate Rain  
Wind Chill: 50°   Ceiling: 500
Heat Index: 50°   Visibility: 2.5mi
Dew Point: 49°   Wind: 5mph
Humidity: 96%   Direction: 140°SE
Pressure: 29.21"   Gusts: NA
Location:  41.93°N, 87.82°W
Report Text: KORD 240251Z 14004KT 2 1/2SM RA BR OVC005 10/09 A2921 RMK AO2 SLP892 CIG 003V007 P0007 60020 T01000094 56052
Loading
Personal Weather Stations






























Interactive Weather Map New forecast layout! Learn more

10-Day Weather Forecast

Advertisements
Track Severe Weather on mobile